Latest Weather Observations for Condobolin Airport

IDN60801

Issued at 7:03 am EST Sunday 24 July 2016 (issued every 30 minutes, with the page automatically refreshed every 10 minutes)

About weather observations | Map of weather stations | Latest weather observations for NSW | Other Formats
Station Details ID: 050137 Name: CONDOBOLIN AIRPORT AWS Lat: -33.07 Lon: 147.21 Height: 192.6 m
Data from the previous 72 hours. | See also: Recent months at Condobolin Airport
Date/Time
EST
Temp
°C
App
Temp
°C
Dew
Point
°C
Rel
Hum
%
Delta-T
°C
Wind Press
QNH
hPa
Press
MSL
hPa
Rain since
9am
mm
Dir  Spd
km/h
Gust
km/h
Spd
kts
Gust
kts
24/07:00am 3.8 2.4 3.7 99 0.0 CALM 0 0 0 0 1016.2 1016.5 0.6
24/06:30am 3.6 2.2 3.5 99 0.0 CALM 0 0 0 0 1015.8 1016.1 0.6
24/06:00am 3.4 2.0 3.3 99 0.0 CALM 0 0 0 0 1015.3 1015.6 0.6
24/05:30am 3.3 1.5 3.2 99 0.0 NE 2 6 1 3 1015.2 1015.5 0.6
24/05:00am 3.0 1.1 2.9 99 0.0 NE 2 6 1 3 1015.1 1015.4 0.6
24/04:30am 2.8 -0.5 2.7 99 0.0 N 9 11 5 6 1015.5 1015.8 0.6
24/04:00am 2.2 0.5 2.1 99 0.0 CALM 0 0 0 0 1015.4 1015.7 0.6
24/03:30am 2.3 0.7 2.2 99 0.0 CALM 0 0 0 0 1015.5 1015.8 0.6
24/03:00am 2.3 0.7 2.2 99 0.0 CALM 0 0 0 0 1016.0 1016.3 0.6
24/02:30am 2.7 1.1 2.4 98 0.1 CALM 0 0 0 0 1015.8 1016.1 0.6
24/02:00am 3.5 0.7 2.9 96 0.2 NW 7 9 4 5 1016.0 1016.3 0.6
24/01:30am 4.4 1.4 4.0 97 0.2 NW 9 11 5 6 1016.2 1016.5 0.6
24/01:00am 4.5 2.1 4.1 97 0.2 NW 6 7 3 4 1016.4 1016.7 0.6
24/12:30am 5.5 3.2 4.8 95 0.3 SW 6 7 3 4 1016.6 1016.9 0.6
24/12:00am 6.4 4.4 6.1 98 0.1 N 6 7 3 4 1017.1 1017.4 0.6
 
Date/Time
EST
Temp
°C
App
Temp
°C
Dew
Point
°C
Rel
Hum
%
Delta-T
°C
Wind Press
QNH
hPa
Press
MSL
hPa
Rain since
9am
mm
Dir  Spd
km/h
Gust
km/h
Spd
kts
Gust
kts
23/11:30pm 5.9 4.9 5.5 97 0.2 CALM 0 0 0 0 1017.3 1017.6 0.6
23/11:00pm 5.2 2.2 4.2 93 0.4 NW 9 11 5 6 1017.1 1017.4 0.6
23/10:30pm 6.3 3.6 5.6 95 0.3 NW 9 11 5 6 1017.4 1017.7 0.6
23/10:00pm 5.4 3.0 4.5 94 0.4 WNW 6 7 3 4 1017.1 1017.4 0.6
23/09:30pm 5.5 2.5 4.2 91 0.6 NW 9 11 5 6 1017.1 1017.4 0.6
23/09:00pm 6.1 3.3 5.1 93 0.4 WNW 9 11 5 6 1016.9 1017.2 0.6
23/08:30pm 6.2 3.8 5.3 94 0.4 WNW 7 9 4 5 1016.7 1017.0 0.6
23/08:00pm 5.1 2.5 4.4 95 0.3 NNW 7 9 4 5 1016.1 1016.4 0.6
23/07:30pm 6.5 5.4 5.3 92 0.5 CALM 0 0 0 0 1015.5 1015.8 0.6
23/07:00pm 6.8 3.9 4.8 87 0.9 W 9 11 5 6 1015.8 1016.1 0.6
23/06:30pm 7.2 4.9 4.7 84 1.1 WSW 6 7 3 4 1015.4 1015.7 0.6
23/06:00pm 8.3 5.1 4.9 79 1.5 W 11 15 6 8 1015.0 1015.3 0.6
23/05:30pm 9.6 5.7 5.2 74 2.0 WSW 15 19 8 10 1014.4 1014.6 0.6
23/05:00pm 10.7 5.8 5.0 68 2.6 WSW 20 28 11 15 1014.4 1014.6 0.6
23/04:30pm 11.6 5.9 4.8 63 3.1 W 24 33 13 18 1013.9 1014.2 0.6
23/04:00pm 12.0 6.4 5.6 65 3.0 W 24 32 13 17 1013.5 1013.8 0.6
23/03:30pm 11.9 7.6 6.8 71 2.5 WSW 19 28 10 15 1012.9 1013.2 0.6
23/03:00pm 11.0 6.2 7.3 78 1.8 WSW 22 30 12 16 1013.0 1013.3 0.4
23/02:30pm 9.7 3.2 6.4 80 1.5 WSW 30 48 16 26 1012.8 1013.1 0.4
23/02:27pm 10.3 3.7 6.1 75 2.0 WSW 30 48 16 26 1012.8 1013.1 0.4
23/02:00pm 12.5 6.7 6.1 65 3.1 WSW 26 37 14 20 1012.4 1012.7 0.0
23/01:30pm 11.8 6.3 6.1 68 2.7 W 24 32 13 17 1012.4 1012.7 0.0
23/01:00pm 11.9 5.6 5.5 65 3.0 W 28 37 15 20 1012.4 1012.7 0.0
23/12:30pm 11.5 4.8 5.4 66 2.8 W 30 39 16 21 1012.5 1012.8 0.0
23/12:00pm 11.8 6.0 6.1 68 2.7 WSW 26 37 14 20 1012.3 1012.6 0.0
23/11:30am 11.7 4.4 5.6 66 2.9 W 33 48 18 26 1012.5 1012.8 0.0
23/11:21am 11.4 4.5 4.6 63 3.1 W 30 48 16 26 1012.5 1012.8 0.0
23/11:00am 11.0 3.1 4.5 64 3.0 W 35 44 19 24 1012.5 1012.8 0.0
23/10:32am 11.2 3.9 5.3 67 2.7 W 33 54 18 29 1011.9 1012.2 0.0
23/10:30am 11.1 3.8 5.4 68 2.6 W 33 46 18 25 1011.8 1012.1 0.0
23/10:00am 10.8 3.0 5.1 68 2.6 W 35 48 19 26 1011.7 1012.0 0.0
23/09:43am 11.0 3.6 5.1 67 2.7 W 33 52 18 28 1011.4 1011.7 0.0
23/09:30am 11.1 3.2 4.6 64 3.0 W 35 50 19 27 1011.1 1011.4 0.0
23/09:00am 10.7 3.3 5.0 68 2.6 W 33 48 18 26 1010.8 1011.1 2.0
23/08:30am 9.9 3.9 5.3 73 2.1 WNW 26 33 14 18 1010.6 1010.9 2.0
23/08:00am 9.2 4.4 4.8 74 2.0 W 19 24 10 13 1010.3 1010.6 2.0
23/07:30am 8.6 3.2 4.6 76 1.8 WNW 22 28 12 15 1009.5 1009.7 2.0
23/07:00am 8.9 3.5 4.3 73 2.0 W 22 30 12 16 1009.2 1009.4 2.0
23/06:30am 9.5 3.3 4.3 70 2.3 W 26 37 14 20 1008.7 1008.9 2.0
23/06:00am 10.0 3.1 4.6 69 2.4 WSW 30 44 16 24 1008.2 1008.5 2.0
23/05:30am 10.7 3.6 5.5 70 2.4 W 32 41 17 22 1007.5 1007.8 2.0
23/05:09am 10.8 4.6 6.0 72 2.3 W 28 48 15 26 1007.2 1007.5 2.0
23/05:00am 11.1 4.2 6.3 72 2.3 W 32 48 17 26 1007.0 1007.3 2.0
23/04:54am 11.1 4.9 6.3 72 2.3 W 28 48 15 26 1006.9 1007.2 2.0
23/04:30am 11.2 5.1 6.5 73 2.2 W 28 41 15 22 1006.7 1007.0 2.0
23/04:00am 11.6 6.0 7.3 75 2.1 W 26 41 14 22 1006.2 1006.5 2.0
23/03:30am 11.8 6.4 7.9 77 1.9 W 26 35 14 19 1006.1 1006.4 2.0
23/03:00am 12.0 7.0 7.9 76 2.0 W 24 37 13 20 1006.0 1006.3 2.0
23/02:30am 12.9 6.6 7.4 69 2.7 WSW 30 43 16 23 1005.7 1005.9 2.0
23/02:00am 13.8 6.7 5.7 58 3.9 W 32 43 17 23 1005.2 1005.4 2.0
23/01:30am 13.9 6.9 5.8 58 3.9 W 32 41 17 22 1004.9 1005.1 2.0
23/01:00am 13.8 7.5 5.9 59 3.8 WNW 28 33 15 18 1004.9 1005.1 2.0
23/12:30am 14.7 8.2 6.5 58 4.0 WNW 30 41 16 22 1004.9 1005.1 2.0
23/12:00am 15.1 8.3 6.9 58 4.1 W 32 41 17 22 1004.8 1005.0 2.0
 
Date/Time
EST
Temp
°C
App
Temp
°C
Dew
Point
°C
Rel
Hum
%
Delta-T
°C
Wind Press
QNH
hPa
Press
MSL
hPa
Rain since
9am
mm
Dir  Spd
km/h
Gust
km/h
Spd
kts
Gust
kts
22/11:42pm 15.8 9.0 7.6 58 4.1 W 33 52 18 28 1004.8 1005.0 2.0
22/11:30pm 16.1 8.5 7.6 57 4.3 W 37 50 20 27 1004.6 1004.8 2.0
22/11:16pm 16.3 9.8 8.8 61 3.9 W 33 52 18 28 1004.5 1004.7 2.0
22/11:00pm 16.5 9.3 9.2 62 3.8 W 37 52 20 28 1004.3 1004.5 2.0
22/10:30pm 17.3 11.2 11.8 70 3.0 W 35 50 19 27 1003.6 1003.8 2.0
22/10:00pm 17.4 12.5 14.3 82 1.8 WSW 33 50 18 27 1002.3 1002.6 2.0
22/09:41pm 17.0 12.9 15.9 93 0.7 W 32 50 17 27 1002.7 1003.0 2.0
22/09:30pm 19.0 15.3 15.9 82 1.9 W 30 44 16 24 1002.5 1002.8 1.0
22/09:05pm 19.5 16.5 16.9 85 1.6 NW 28 46 15 25 1001.9 1002.2 1.0
22/09:00pm 19.7 16.0 16.9 84 1.7 NW 32 46 17 25 1001.9 1002.2 1.0
22/08:30pm 19.5 15.0 16.5 83 1.8 NNW 35 57 19 31 1001.7 1002.0 0.8
22/08:28pm 20.8 16.8 16.6 77 2.6 NNW 33 52 18 28 1001.6 1001.9 0.0
22/08:00pm 21.2 17.2 16.2 73 3.1 NNW 32 43 17 23 1001.6 1001.9 0.0
22/07:30pm 21.2 17.6 16.2 73 3.0 NNW 30 39 16 21 1001.7 1002.0 0.0
22/07:00pm 21.3 18.1 16.3 73 3.1 NNW 28 37 15 20 1002.1 1002.4 0.0
22/06:30pm 21.5 18.0 16.5 73 3.1 NNW 30 39 16 21 1002.1 1002.4 0.0
22/06:00pm 21.6 18.2 16.8 74 3.0 NNW 30 37 16 20 1002.3 1002.6 0.0
22/05:30pm 21.5 18.5 16.9 75 2.8 NNW 28 35 15 19 1002.1 1002.4 0.0
22/05:00pm 21.8 19.4 17.4 76 2.7 NNW 26 32 14 17 1002.3 1002.6 0.0
22/04:30pm 21.7 19.7 17.5 77 2.6 NNW 24 33 13 18 1002.5 1002.8 0.0
22/04:00pm 22.0 20.1 17.6 76 2.8 NNW 24 33 13 18 1002.5 1002.8 0.0
22/03:30pm 22.4 19.1 17.1 72 3.3 NNW 30 39 16 21 1003.3 1003.5 0.0
22/03:00pm 22.4 18.8 17.1 72 3.3 NNW 32 43 17 23 1003.3 1003.5 0.0
22/02:30pm 23.1 18.6 17.3 70 3.6 NNW 37 54 20 29 1003.0 1003.3 0.0
22/02:14pm 22.8 18.0 17.5 72 3.3 NW 39 57 21 31 1004.0 1004.2 0.0
22/02:00pm 22.9 17.3 17.4 71 3.4 NW 43 54 23 29 1004.3 1004.5 0.0
22/01:50pm 23.4 20.2 18.7 75 3.0 NW 33 52 18 28 1004.4 1004.6 0.0
22/01:30pm 22.6 18.3 17.9 75 2.9 NNW 37 50 20 27 1004.7 1004.9 0.0
22/01:00pm 21.7 18.9 18.1 80 2.3 NNW 30 43 16 23 1005.6 1005.8 0.0
22/12:30pm 21.4 17.6 18.2 82 2.0 NNW 35 50 19 27 1006.4 1006.7 0.0
22/12:00pm 21.1 19.0 19.0 88 1.3 NNW 28 37 15 20 1007.2 1007.5 0.0
22/11:30am 20.3 17.0 18.4 89 1.2 NNW 33 46 18 25 1007.7 1008.0 0.0
22/11:00am 19.7 16.0 18.4 92 0.8 NNW 35 44 19 24 1008.4 1008.7 0.0
22/10:30am 18.6 14.5 17.4 93 0.7 N 35 46 19 25 1009.0 1009.2 0.0
22/10:00am 18.8 15.0 18.0 95 0.5 N 35 48 19 26 1009.4 1009.6 0.0
22/09:30am 17.5 13.9 17.3 99 0.1 N 32 43 17 23 1009.7 1009.9 0.0
22/09:00am 16.6 13.4 16.4 99 0.1 N 28 35 15 19 1010.3 1010.6 0.0
22/08:30am 16.1 13.1 15.9 99 0.1 N 26 35 14 19 1010.3 1010.6 0.0
22/08:00am 15.9 12.5 15.7 99 0.1 N 28 39 15 21 1010.7 1011.0 0.0
22/07:30am 15.5 12.7 15.3 99 0.1 N 24 33 13 18 1010.6 1010.9 0.0
22/07:00am 15.1 12.1 14.9 99 0.1 N 24 30 13 16 1010.6 1010.9 0.0
22/06:30am 14.8 11.3 14.6 99 0.1 N 26 32 14 17 1010.5 1010.8 0.0
22/06:00am 14.7 11.2 14.5 99 0.1 N 26 30 14 16 1010.7 1011.0 0.0
22/05:30am 14.6 12.2 14.4 99 0.1 N 20 26 11 14 1010.8 1011.1 0.0
22/05:00am 14.5 13.0 14.3 99 0.1 N 15 20 8 11 1011.0 1011.3 0.0
22/04:30am 14.8 14.2 14.6 99 0.1 N 11 13 6 7 1011.7 1012.0 0.0
22/04:00am 14.9 13.6 14.7 99 0.1 N 15 20 8 11 1011.9 1012.2 0.0
22/03:30am 15.1 13.5 14.9 99 0.1 N 17 22 9 12 1012.0 1012.3 0.0
22/03:00am 15.2 13.6 15.0 99 0.1 N 17 22 9 12 1012.4 1012.7 0.0
22/02:30am 15.1 13.8 14.9 99 0.1 N 15 20 8 11 1012.8 1013.1 0.0
22/02:00am 14.9 13.9 14.7 99 0.1 N 13 17 7 9 1013.5 1013.8 0.0
22/01:30am 15.3 13.4 15.1 99 0.1 N 19 24 10 13 1013.7 1014.0 0.0
22/01:00am 15.2 13.2 15.0 99 0.1 N 19 22 10 12 1013.9 1014.2 0.0
22/12:30am 14.1 12.1 13.9 99 0.1 NNE 17 19 9 10 1014.1 1014.3 0.0
22/12:00am 14.0 11.6 13.8 99 0.1 NNE 19 20 10 11 1014.4 1014.6 0.0
 
Date/Time
EST
Temp
°C
App
Temp
°C
Dew
Point
°C
Rel
Hum
%
Delta-T
°C
Wind Press
QNH
hPa
Press
MSL
hPa
Rain since
9am
mm
Dir  Spd
km/h
Gust
km/h
Spd
kts
Gust
kts
21/11:30pm 13.9 11.5 13.7 99 0.1 NNE 19 20 10 11 1014.7 1015.0 0.0
21/11:00pm 13.7 11.2 13.5 99 0.1 N 19 20 10 11 1014.9 1015.2 0.0
21/10:30pm 13.2 11.3 12.9 98 0.2 N 15 17 8 9 1015.3 1015.6 0.0
21/10:00pm 13.3 11.0 13.1 99 0.1 NNE 17 19 9 10 1014.9 1015.2 0.0
21/09:30pm 14.2 13.0 14.0 99 0.1 N 13 20 7 11 1015.3 1015.6 0.0
21/09:00pm 13.0 11.4 12.8 99 0.1 NNE 13 15 7 8 1015.0 1015.3 0.0
21/08:30pm 13.2 12.4 13.0 99 0.1 NE 9 11 5 6 1015.1 1015.4 0.0
21/08:00pm 14.0 12.7 13.8 99 0.1 NE 13 15 7 8 1015.3 1015.6 0.0
21/07:30pm 12.6 13.0 12.4 99 0.1 NE 2 9 1 5 1016.0 1016.3 0.0
21/07:00pm 13.3 13.9 13.0 98 0.2 NE 2 9 1 5 1015.8 1016.1 0.0
21/06:30pm 13.6 13.1 12.8 95 0.4 NNE 7 7 4 4 1015.4 1015.7 0.0
21/06:00pm 15.5 16.7 13.9 90 0.9 CALM 0 0 0 0 1015.3 1015.6 0.0
21/05:30pm 16.8 17.7 14.1 84 1.6 NNE 2 7 1 4 1015.1 1015.4 0.0
21/05:00pm 19.2 19.5 14.5 74 2.7 N 6 7 3 4 1015.1 1015.4 0.0
21/04:30pm 20.0 19.5 13.7 67 3.6 NNW 9 11 5 6 1015.0 1015.3 0.0
21/04:00pm 20.9 20.9 13.6 63 4.2 N 6 9 3 5 1015.2 1015.5 0.0
21/03:30pm 20.6 20.3 14.3 67 3.7 NNW 9 13 5 7 1015.4 1015.7 0.0
21/03:00pm 20.3 19.3 13.3 64 4.0 NNW 11 15 6 8 1015.6 1015.9 0.0
21/02:30pm 20.4 19.9 15.0 71 3.2 NW 11 13 6 7 1015.7 1016.0 0.0
21/02:00pm 20.2 19.4 15.0 72 3.1 NW 13 17 7 9 1016.0 1016.3 0.0
21/01:30pm 19.9 19.9 15.3 75 2.7 NNW 9 15 5 8 1016.4 1016.7 0.0
21/01:00pm 19.4 19.0 15.3 77 2.4 N 11 17 6 9 1016.9 1017.2 0.0
21/12:30pm 18.7 18.5 15.6 82 1.8 NNW 11 17 6 9 1017.3 1017.6 0.0
21/12:00pm 17.3 18.6 17.0 98 0.2 WNW 6 7 3 4 1017.9 1018.2 0.0
21/11:30am 15.5 16.5 15.3 99 0.1 SSW 4 9 2 5 1018.3 1018.6 0.0
21/11:00am 14.5 15.1 14.3 99 0.1 SSW 4 7 2 4 1018.7 1019.0 0.0
21/10:30am 13.5 14.5 13.3 99 0.1 CALM 0 2 0 1 1018.9 1019.3 0.0
21/10:00am 12.5 12.1 12.3 99 0.1 NE 6 7 3 4 1019.1 1019.5 0.0
21/09:30am 11.6 11.3 11.4 99 0.1 ESE 4 6 2 3 1019.0 1019.4 0.0
21/09:00am 10.9 10.0 10.7 99 0.1 ESE 6 9 3 5 1019.0 1019.4 3.2
21/08:30am 10.6 9.4 10.4 99 0.1 ESE 7 9 4 5 1018.8 1019.2 3.2
21/08:00am 10.5 9.5 10.3 99 0.1 ESE 6 7 3 4 1018.8 1019.2 3.0
21/07:30am 10.5 10.3 10.3 99 0.1 ESE 2 7 1 4 1018.7 1019.0 3.0

Other Formats:

Comma delimited format used in spreadsheet applications
http://www.bom.gov.au/fwo/IDN60801/IDN60801.95708.axf

JavaScript Object Notation format (JSON) in row-major order
http://www.bom.gov.au/fwo/IDN60801/IDN60801.95708.json